Time;durP1;ratioP1;P1;durP2;ratioP2;P2;SDS_P1;SDS_P2;PMS_P1;PMS_P2;Temp;Humidity;BMP_temperature;BMP_pressure;BME280_temperature;BME280_humidity;BME280_pressure;Samples;Min_cycle;Max_cycle;Signal;HPM_P1;HPM_P2
2023/05/01 00:00:42;;;;;;;14.27;9.82;;;;;;;15.16;100.00;151800.81;5036500;28;20029;-86
2023/05/01 00:03:08;;;;;;;14.30;9.60;;;;;;;15.30;100.00;151835.94;5036232;28;20033;-89
2023/05/01 00:05:33;;;;;;;15.80;9.60;;;;;;;15.36;100.00;151850.97;5036117;28;20041;-88
2023/05/01 00:07:59;;;;;;;15.88;9.07;;;;;;;15.37;100.00;151853.50;5036505;28;20026;-90
2023/05/01 00:10:24;;;;;;;12.70;8.75;;;;;;;15.36;100.00;151850.97;5035505;28;20037;-87
2023/05/01 00:12:50;;;;;;;17.67;8.77;;;;;;;15.42;100.00;151867.28;5051656;28;20391;-93
2023/05/01 00:15:16;;;;;;;11.02;8.77;;;;;;;15.30;100.00;151835.94;5036065;28;20037;-91
2023/05/01 00:17:41;;;;;;;15.07;10.00;;;;;;;15.14;100.00;151795.81;5036908;28;20037;-90
2023/05/01 00:20:08;;;;;;;14.88;10.38;;;;;;;15.12;100.00;151790.78;5036944;28;20503;-91
2023/05/01 00:22:33;;;;;;;14.18;9.43;;;;;;;15.13;100.00;151793.31;5036555;28;20025;-90
2023/05/01 00:24:59;;;;;;;14.52;9.77;;;;;;;15.11;100.00;151788.31;5036887;28;20036;-91
2023/05/01 00:27:25;;;;;;;18.38;9.40;;;;;;;15.19;100.00;151808.34;5037595;28;20115;-89
2023/05/01 00:29:50;;;;;;;14.27;9.68;;;;;;;15.20;100.00;151810.84;5034777;28;20509;-90
2023/05/01 00:32:16;;;;;;;13.20;9.50;;;;;;;15.14;100.00;151795.81;5050380;28;20029;-89
2023/05/01 00:34:42;;;;;;;14.95;10.00;;;;;;;15.10;100.00;151785.78;5050940;28;20155;-85
2023/05/01 00:37:08;;;;;;;27.83;11.07;;;;;;;15.12;100.00;151790.78;5036510;28;20033;-90
2023/05/01 00:39:33;;;;;;;17.25;9.90;;;;;;;15.16;100.00;151800.81;5035540;28;20025;-89
2023/05/01 00:41:59;;;;;;;16.88;11.35;;;;;;;15.00;100.00;151763.22;5034639;28;20491;-87
2023/05/01 00:44:24;;;;;;;14.32;9.98;;;;;;;15.06;100.00;151777.00;5035696;28;20033;-87
2023/05/01 00:46:50;;;;;;;15.70;10.75;;;;;;;15.00;100.00;151763.22;5035719;28;20481;-88
2023/05/01 00:49:16;;;;;;;18.92;11.07;;;;;;;14.96;100.00;151753.19;5034420;28;20033;-88
2023/05/01 00:51:43;;;;;;;21.08;10.10;;;;;;;15.01;100.00;151765.69;5035251;28;20033;-87
2023/05/01 00:54:09;;;;;;;19.67;10.43;;;;;;;15.08;100.00;151782.00;5035177;28;20037;-87
2023/05/01 00:56:34;;;;;;;16.20;10.82;;;;;;;15.08;100.00;151780.78;5035483;28;20036;-89
2023/05/01 00:59:00;;;;;;;20.35;10.73;;;;;;;14.96;100.00;151753.19;5034257;28;20022;-88
2023/05/01 01:01:25;;;;;;;17.15;11.43;;;;;;;14.91;100.00;151739.41;5035199;28;20038;-88
2023/05/01 01:03:51;;;;;;;14.85;11.23;;;;;;;14.99;100.00;151760.72;5055585;28;20049;-84
2023/05/01 01:06:35;;;;;;;19.48;11.63;;;;;;;15.08;100.00;151780.78;5038069;28;20041;-89
2023/05/01 01:09:25;;;;;;;17.70;10.57;;;;;;;15.07;100.00;151778.25;5034537;28;20132;-87
2023/05/01 01:12:05;;;;;;;17.60;11.05;;;;;;;15.33;100.00;151843.47;5050200;28;20081;-89
2023/05/01 01:14:54;;;;;;;17.23;10.48;;;;;;;15.50;100.00;151886.16;5034610;28;20034;-89
2023/05/01 01:17:37;;;;;;;17.27;11.40;;;;;;;15.41;100.00;151864.75;5035072;28;20121;-88
2023/05/01 01:20:11;;;;;;;21.58;11.70;;;;;;;15.39;100.00;151858.50;5034569;28;20150;-88
2023/05/01 01:22:42;;;;;;;14.40;11.07;;;;;;;15.46;100.00;151876.06;5032907;28;20060;-87
2023/05/01 01:25:33;;;;;;;23.58;11.57;;;;;;;15.51;100.00;151888.66;5032749;28;20355;-87
2023/05/01 01:28:33;;;;;;;19.52;12.00;;;;;;;15.51;100.00;151888.66;5034221;28;20098;-89
2023/05/01 01:31:07;;;;;;;18.65;12.55;;;;;;;15.35;100.00;151849.72;5034338;28;20065;-86
2023/05/01 01:34:00;;;;;;;20.45;11.73;;;;;;;15.28;100.00;151832.16;5034769;28;20048;-87
2023/05/01 01:36:41;;;;;;;;;;;;;;;15.24;100.00;151822.16;5034518;28;20037;-88
2023/05/01 01:39:26;;;;;;;16.80;11.85;;;;;;;15.40;100.00;151861.03;5034188;28;19917;-90
2023/05/01 01:41:53;;;;;;;18.55;12.18;;;;;;;15.40;100.00;151862.28;5033340;28;20049;-89
2023/05/01 01:44:42;;;;;;;18.38;11.10;;;;;;;15.36;100.00;151850.97;5034974;28;20037;-88
2023/05/01 01:47:13;;;;;;;16.77;12.15;;;;;;;15.13;100.00;151793.31;5050448;28;20053;-88
2023/05/01 01:49:44;;;;;;;17.83;12.45;;;;;;;14.89;100.00;151735.63;5034594;28;20111;-86
2023/05/01 01:52:13;;;;;;;20.00;12.90;;;;;;;14.90;100.00;151738.16;5034761;28;20033;-90
2023/05/01 01:54:45;;;;;;;24.42;14.00;;;;;;;14.88;100.00;151731.91;5033010;28;20318;-89
2023/05/01 01:57:15;;;;;;;18.33;12.68;;;;;;;14.88;100.00;151733.09;5032817;28;20094;-86
2023/05/01 01:59:42;;;;;;;18.40;13.18;;;;;;;15.02;100.00;151768.22;5032385;28;20030;-89
2023/05/01 02:02:08;;;;;;;24.92;13.70;;;;;;;14.96;100.00;151751.94;5032921;28;20088;-88
2023/05/01 02:04:35;;;;;;;22.33;13.07;;;;;;;14.93;100.00;151744.41;5034177;28;20077;-86
2023/05/01 02:07:03;;;;;;;23.63;14.10;;;;;;;14.82;100.00;151718.06;5033901;28;20037;-87
2023/05/01 02:09:30;;;;;;;22.35;14.40;;;;;;;14.80;100.00;151711.81;5033937;28;20115;-88
2023/05/01 02:11:56;;;;;;;26.00;14.50;;;;;;;14.92;100.00;151743.16;5033764;28;20037;-87
2023/05/01 02:14:25;;;;;;;23.95;15.20;;;;;;;14.86;100.00;151728.13;5031740;28;20033;-88
2023/05/01 02:16:51;;;;;;;23.35;15.88;;;;;;;14.95;100.00;151750.66;5048599;28;20443;-86
2023/05/01 02:19:18;;;;;;;21.27;15.10;;;;;;;14.75;100.00;151700.53;5033832;28;20038;-89
2023/05/01 02:21:45;;;;;;;21.67;15.82;;;;;;;14.69;100.00;151685.50;5048602;28;20025;-90
2023/05/01 02:24:12;;;;;;;20.60;15.18;;;;;;;14.73;100.00;151695.53;5036351;28;20049;-89
2023/05/01 02:26:42;;;;;;;20.90;14.75;;;;;;;14.79;100.00;151710.56;5052560;28;20072;-89
2023/05/01 02:29:09;;;;;;;25.63;15.23;;;;;;;15.02;100.00;151766.97;5036592;28;20076;-87
2023/05/01 02:31:34;;;;;;;19.75;14.73;;;;;;;14.68;100.00;151682.97;5038087;28;20034;-87
2023/05/01 02:34:00;;;;;;;29.02;15.35;;;;;;;14.67;100.00;151680.50;5052745;28;20037;-88
2023/05/01 02:36:26;;;;;;;35.28;15.82;;;;;;;14.68;100.00;151681.75;5036220;28;20045;-89
2023/05/01 02:38:53;;;;;;;24.42;15.48;;;;;;;15.00;100.00;151761.97;5036328;28;20061;-88
2023/05/01 02:41:21;;;;;;;20.38;14.65;;;;;;;14.81;100.00;151715.59;5035909;28;20348;-87
2023/05/01 02:43:54;;;;;;;23.90;15.40;;;;;;;14.73;100.00;151695.53;5036175;28;20033;-84
2023/05/01 02:46:23;;;;;;;23.88;15.30;;;;;;;14.82;100.00;151718.06;5058956;28;20464;-85
2023/05/01 02:48:49;;;;;;;22.15;14.93;;;;;;;14.89;100.00;151735.63;5036633;28;20461;-88
2023/05/01 02:51:17;;;;;;;22.50;14.70;;;;;;;14.94;100.00;151746.94;5036000;28;20487;-89
2023/05/01 02:53:42;;;;;;;22.08;15.10;;;;;;;15.00;100.00;151763.22;5037068;28;20045;-87
2023/05/01 02:56:17;;;;;;;22.80;15.70;;;;;;;14.90;100.00;151738.16;5052113;28;20022;-87
2023/05/01 02:58:43;;;;;;;26.45;16.13;;;;;;;14.77;100.00;151705.56;5036915;28;20040;-86
2023/05/01 03:01:10;;;;;;;27.98;16.80;;;;;;;14.64;100.00;151672.97;5035652;28;20037;-89
2023/05/01 03:03:36;;;;;;;21.95;16.02;;;;;;;14.63;100.00;151669.19;5052341;28;20124;-86
2023/05/01 03:06:02;;;;;;;26.55;16.85;;;;;;;14.50;100.00;151637.88;5037550;28;20037;-89
2023/05/01 03:08:29;;;;;;;25.17;17.27;;;;;;;14.51;100.00;151640.41;5036970;28;20038;-86
2023/05/01 03:10:54;;;;;;;24.73;17.63;;;;;;;14.48;100.00;151632.88;5038858;28;20035;-86
2023/05/01 03:13:21;;;;;;;26.02;18.35;;;;;;;14.37;100.00;151605.28;5047316;28;20112;-87
2023/05/01 03:15:46;;;;;;;29.13;18.50;;;;;;;14.57;100.00;151655.44;5051806;28;20030;-86
2023/05/01 03:18:12;;;;;;;25.40;18.90;;;;;;;14.39;100.00;151610.28;5057728;28;20044;-86
2023/05/01 03:20:38;;;;;;;29.40;17.95;;;;;;;14.38;100.00;151607.81;5056850;28;20089;-87
2023/05/01 03:23:03;;;;;;;25.75;17.42;;;;;;;14.40;100.00;151612.81;5057036;28;20052;-83
2023/05/01 03:25:29;;;;;;;29.35;16.90;;;;;;;14.38;100.00;151607.81;5038293;28;20092;-92
2023/05/01 03:27:55;;;;;;;25.73;17.45;;;;;;;14.39;100.00;151610.28;5036386;28;20067;-91
2023/05/01 03:30:20;;;;;;;23.70;16.23;;;;;;;14.30;100.00;151588.97;5037311;28;20041;-89
2023/05/01 03:32:46;;;;;;;25.40;17.13;;;;;;;14.31;100.00;151590.22;5035406;28;20494;-89
2023/05/01 03:35:19;;;;;;;24.73;16.67;;;;;;;14.08;100.00;151533.84;5051535;28;20041;-89
2023/05/01 03:37:44;;;;;;;26.73;16.55;;;;;;;14.23;100.00;151570.16;5036797;28;20084;-91
2023/05/01 03:40:15;;;;;;;27.23;17.08;;;;;;;14.13;100.00;151545.09;5034926;28;20252;-89
2023/05/01 03:42:46;;;;;;;25.30;17.58;;;;;;;14.10;100.00;151537.56;5035886;28;20053;-89
2023/05/01 03:45:18;;;;;;;25.42;18.55;;;;;;;14.21;100.00;151565.16;5034073;28;20037;-91
2023/05/01 03:47:44;;;;;;;31.02;19.33;;;;;;;14.16;100.00;151553.88;5034230;28;20044;-89
2023/05/01 03:50:10;;;;;;;31.58;19.63;;;;;;;14.40;100.00;151612.81;5034122;28;20079;-88
2023/05/01 03:52:39;;;;;;;25.88;18.40;;;;;;;14.23;100.00;151570.16;5034410;28;20098;-90
2023/05/01 03:55:06;;;;;;;29.38;19.27;;;;;;;14.21;100.00;151566.41;5034521;28;20144;-90
2023/05/01 03:57:37;;;;;;;28.10;18.40;;;;;;;14.16;100.00;151552.59;5033998;28;20033;-87
2023/05/01 04:00:05;;;;;;;30.95;18.95;;;;;;;14.25;100.00;151575.19;5034399;28;20064;-88
2023/05/01 04:02:41;;;;;;;28.25;19.45;;;;;;;14.28;100.00;151583.97;5035558;28;20082;-90
2023/05/01 04:05:08;;;;;;;32.25;19.10;;;;;;;14.25;100.00;151576.41;5033825;28;20034;-90
2023/05/01 04:07:34;;;;;;;32.03;18.73;;;;;;;14.13;100.00;151546.34;5034020;28;20044;-86
2023/05/01 04:10:00;;;;;;;29.65;20.30;;;;;;;14.18;100.00;151557.66;5033948;28;20033;-86
2023/05/01 04:12:25;;;;;;;27.83;18.20;;;;;;;14.16;100.00;151552.59;5033581;28;20033;-87
2023/05/01 04:14:51;;;;;;;29.92;19.90;;;;;;;14.19;100.00;151560.13;5035144;28;20494;-87
2023/05/01 04:17:16;;;;;;;29.25;20.10;;;;;;;14.23;100.00;151570.16;5039824;28;20061;-87
2023/05/01 04:19:42;;;;;;;29.80;19.65;;;;;;;14.24;100.00;151573.94;5033652;28;20144;-90
2023/05/01 04:22:08;;;;;;;31.60;19.70;;;;;;;14.17;100.00;151555.13;5035998;28;20060;-88
2023/05/01 04:24:35;;;;;;;30.77;20.90;;;;;;;14.06;100.00;151528.81;5033984;28;20056;-89
2023/05/01 04:27:01;;;;;;;28.83;20.10;;;;;;;14.10;100.00;151537.56;5034204;28;20486;-87
2023/05/01 04:29:26;;;;;;;33.40;20.05;;;;;;;14.23;100.00;151570.16;5034157;28;20434;-89
2023/05/01 04:31:52;;;;;;;31.77;20.50;;;;;;;13.99;100.00;151511.25;5033416;28;20120;-89
2023/05/01 04:34:18;;;;;;;34.83;21.10;;;;;;;14.15;100.00;151550.13;5033455;28;20033;-89
2023/05/01 04:36:45;;;;;;;40.90;20.95;;;;;;;13.98;100.00;151508.78;5033444;28;20037;-87
2023/05/01 04:39:10;;;;;;;29.77;20.35;;;;;;;14.17;100.00;151555.13;5034563;28;20021;-85
2023/05/01 04:41:36;;;;;;;32.50;19.55;;;;;;;14.22;100.00;151567.69;5035677;28;20080;-87
2023/05/01 04:44:03;;;;;;;32.58;19.33;;;;;;;14.35;100.00;151601.50;5034768;28;20502;-85
2023/05/01 04:46:29;;;;;;;35.17;18.20;;;;;;;14.19;100.00;151561.38;5034820;28;20041;-87
2023/05/01 04:48:54;;;;;;;27.05;18.92;;;;;;;14.31;100.00;151591.47;5034104;28;20093;-87
2023/05/01 04:51:21;;;;;;;27.85;17.90;;;;;;;14.22;100.00;151567.69;5036852;28;20491;-85
2023/05/01 04:53:47;;;;;;;24.77;18.33;;;;;;;14.16;100.00;151552.59;5037008;28;20021;-86
2023/05/01 04:56:20;;;;;;;30.00;18.67;;;;;;;14.19;100.00;151560.13;5032346;28;20491;-85
2023/05/01 04:58:48;;;;;;;28.55;18.75;;;;;;;14.29;100.00;151586.44;5032620;28;20036;-84
2023/05/01 05:01:18;;;;;;;27.63;18.35;;;;;;;14.19;100.00;151560.13;5032387;28;20037;-85
2023/05/01 05:03:43;;;;;;;33.35;18.95;;;;;;;14.06;100.00;151528.81;5032017;28;20390;-88
2023/05/01 05:06:12;;;;;;;28.63;17.95;;;;;;;14.25;100.00;151575.19;5032201;28;20049;-88
2023/05/01 05:08:37;;;;;;;27.75;18.27;;;;;;;14.20;100.00;151562.63;5032470;28;20037;-88
2023/05/01 05:11:09;;;;;;;26.17;18.73;;;;;;;14.27;100.00;151581.44;5049225;28;20037;-87
2023/05/01 05:13:54;;;;;;;30.77;18.05;;;;;;;14.33;100.00;151595.22;5034703;28;20593;-86
2023/05/01 05:16:20;;;;;;;22.67;16.40;;;;;;;14.36;100.00;151602.78;5037792;28;20116;-92
2023/05/01 05:18:46;;;;;;;29.23;18.08;;;;;;;14.21;100.00;151565.16;5034675;28;20022;-89
2023/05/01 05:21:11;;;;;;;30.70;16.95;;;;;;;14.23;100.00;151571.41;5036138;28;20120;-90
2023/05/01 05:23:43;;;;;;;24.55;17.95;;;;;;;14.24;100.00;151572.69;5049690;28;20033;-90
2023/05/01 05:26:08;;;;;;;30.33;17.73;;;;;;;14.32;100.00;151592.69;5033867;28;20064;-89
2023/05/01 05:28:34;;;;;;;28.65;17.13;;;;;;;14.38;100.00;151609.03;5035348;28;20088;-88
2023/05/01 05:31:01;;;;;;;24.23;17.70;;;;;;;14.27;100.00;151580.19;5036863;28;20513;-92
2023/05/01 05:33:28;;;;;;;27.92;17.15;;;;;;;14.29;100.00;151586.44;5036012;28;20059;-87
2023/05/01 05:35:54;;;;;;;27.80;16.77;;;;;;;14.32;100.00;151593.94;5017463;28;20374;-84
2023/05/01 05:38:25;;;;;;;21.03;13.00;;;;;;;14.37;100.00;151605.28;5033572;28;20022;-87
2023/05/01 05:40:54;;;;;;;25.17;16.38;;;;;;;14.26;100.00;151577.66;5035558;28;20048;-90
2023/05/01 05:43:21;;;;;;;31.88;17.85;;;;;;;14.33;100.00;151596.53;5033700;28;20041;-83
2023/05/01 05:45:46;;;;;;;27.65;16.95;;;;;;;14.17;100.00;151555.13;5033510;28;20102;-88
2023/05/01 05:48:12;;;;;;;30.73;16.58;;;;;;;14.37;100.00;151605.28;5031597;28;20578;-84
2023/05/01 05:50:39;;;;;;;26.45;15.18;;;;;;;14.34;100.00;151597.78;5032801;28;20479;-90
2023/05/01 05:53:05;;;;;;;18.75;13.70;;;;;;;14.55;100.00;151650.38;5034307;28;20053;-85
2023/05/01 05:55:32;;;;;;;21.17;14.30;;;;;;;14.62;100.00;151667.94;5017165;28;20049;-86
2023/05/01 05:58:00;;;;;;;18.45;13.70;;;;;;;14.70;100.00;151686.75;5036103;28;20028;-89
2023/05/01 06:00:26;;;;;;;22.52;13.20;;;;;;;14.84;100.00;151723.13;5036572;28;20395;-85
2023/05/01 06:02:53;;;;;;;19.98;12.50;;;;;;;14.70;100.00;151686.75;5037521;28;20068;-88
2023/05/01 06:05:19;;;;;;;14.70;11.43;;;;;;;14.74;100.00;151698.06;5038617;28;20119;-87
2023/05/01 06:07:45;;;;;;;15.18;10.82;;;;;;;14.83;100.00;151719.34;5039707;28;20057;-86
2023/05/01 06:10:11;;;;;;;14.93;11.05;;;;;;;15.02;100.00;151766.97;5044248;28;20021;-85
2023/05/01 06:12:38;;;;;;;17.13;10.88;;;;;;;14.89;100.00;151734.38;5036436;28;20479;-86
2023/05/01 06:15:05;;;;;;;14.30;9.20;;;;;;;14.83;100.00;151719.34;5037258;28;20064;-85
2023/05/01 06:17:33;;;;;;;14.30;9.88;;;;;;;14.60;100.00;151662.94;5042198;28;20025;-89
2023/05/01 06:20:00;;;;;;;16.38;9.85;;;;;;;14.54;100.00;151647.91;5039810;28;20061;-88
2023/05/01 06:22:29;;;;;;;15.77;9.55;;;;;;;14.55;100.00;151650.38;5038840;28;20129;-87
2023/05/01 06:25:16;;;;;;;16.30;9.63;;;;;;;14.50;100.00;151637.88;5039757;28;20463;-86
2023/05/01 06:27:42;;;;;;;16.88;9.70;;;;;;;14.35;100.00;151600.31;5016837;28;20188;-88
2023/05/01 06:30:08;;;;;;;15.38;8.93;;;;;;;14.60;100.00;151662.94;5016654;28;20387;-87
2023/05/01 06:32:36;;;;;;;17.90;9.90;;;;;;;14.42;100.00;151617.81;5015932;28;20172;-88
2023/05/01 06:35:02;;;;;;;16.75;9.85;;;;;;;14.39;100.00;151610.28;5032719;28;20038;-90
2023/05/01 06:37:28;;;;;;;14.48;9.60;;;;;;;14.40;100.00;151612.81;5016838;28;20458;-88
2023/05/01 06:39:54;;;;;;;17.15;10.43;;;;;;;14.34;100.00;151597.78;5017075;28;20038;-90
2023/05/01 06:42:20;;;;;;;18.73;9.30;;;;;;;14.46;100.00;151627.84;5016808;28;20117;-88
2023/05/01 06:44:46;;;;;;;19.33;10.57;;;;;;;14.26;100.00;151578.94;5016568;28;20095;-85
2023/05/01 06:47:11;;;;;;;19.95;9.85;;;;;;;14.41;100.00;151616.59;5015689;28;20033;-87
2023/05/01 06:49:39;;;;;;;14.57;9.82;;;;;;;14.42;100.00;151617.81;5015710;28;20040;-83
2023/05/01 06:52:06;;;;;;;18.73;9.35;;;;;;;14.28;100.00;151582.69;5017380;28;20570;-83
2023/05/01 06:54:31;;;;;;;16.00;10.02;;;;;;;14.20;100.00;151562.63;5024121;28;20057;-83
2023/05/01 06:56:57;;;;;;;14.23;10.02;;;;;;;14.27;100.00;151580.19;5025008;28;20064;-86
2023/05/01 06:59:24;;;;;;;16.75;9.80;;;;;;;14.25;100.00;151575.19;5023159;28;20037;-88
2023/05/01 07:01:49;;;;;;;14.82;10.10;;;;;;;14.27;100.00;151580.19;5024143;28;20045;-87
2023/05/01 07:04:15;;;;;;;20.48;9.88;;;;;;;14.37;100.00;151605.28;5026609;28;20549;-89
2023/05/01 07:06:40;;;;;;;19.52;10.48;;;;;;;14.35;100.00;151601.50;5023662;28;20026;-90
2023/05/01 07:09:06;;;;;;;17.65;11.00;;;;;;;14.29;100.00;151586.44;5021114;28;20030;-88
2023/05/01 07:11:32;;;;;;;16.02;10.15;;;;;;;14.30;100.00;151587.69;5000267;28;20457;-86
2023/05/01 07:13:59;;;;;;;16.15;10.38;;;;;;;14.31;100.00;151591.47;5017230;28;20045;-86
2023/05/01 07:16:25;;;;;;;13.43;10.48;;;;;;;14.35;100.00;151601.50;5015920;28;20034;-84
2023/05/01 07:18:50;;;;;;;18.50;10.88;;;;;;;14.24;100.00;151572.69;5030938;28;20044;-86
2023/05/01 07:21:16;;;;;;;19.38;11.18;;;;;;;14.15;100.00;151550.13;5053328;28;20035;-88
2023/05/01 07:23:41;;;;;;;17.40;10.68;;;;;;;14.29;100.00;151585.19;5037934;28;20140;-89
2023/05/01 07:26:07;;;;;;;15.52;10.32;;;;;;;14.29;100.00;151585.19;5036372;28;20034;-87
2023/05/01 07:28:35;;;;;;;17.17;11.73;;;;;;;14.35;100.00;151601.50;5037589;28;20026;-85
2023/05/01 07:31:00;;;;;;;16.92;11.45;;;;;;;14.35;100.00;151600.31;5037324;28;20034;-88
2023/05/01 07:33:27;;;;;;;16.30;10.45;;;;;;;14.33;100.00;151595.22;5038038;28;20089;-87
2023/05/01 07:35:52;;;;;;;21.23;10.50;;;;;;;14.23;100.00;151570.16;5039392;28;20040;-84
2023/05/01 07:38:18;;;;;;;17.10;9.15;;;;;;;14.13;100.00;151545.09;5038860;28;20022;-85
2023/05/01 07:40:44;;;;;;;15.80;9.07;;;;;;;14.19;100.00;151560.13;5039307;28;20459;-86
2023/05/01 07:43:10;;;;;;;22.23;9.25;;;;;;;14.13;100.00;151546.34;5036689;28;20037;-86
2023/05/01 07:45:41;;;;;;;13.80;9.40;;;;;;;14.07;100.00;151531.31;5042383;28;20124;-87
2023/05/01 07:48:11;;;;;;;17.05;9.40;;;;;;;13.96;100.00;151503.75;5040534;28;20029;-87
2023/05/01 07:50:37;;;;;;;16.08;8.85;;;;;;;14.02;100.00;151517.56;5052929;28;20048;-85
2023/05/01 07:53:03;;;;;;;14.85;9.45;;;;;;;13.98;100.00;151510.03;5049007;28;20239;-86
2023/05/01 07:55:29;;;;;;;17.73;9.07;;;;;;;14.12;100.00;151542.63;5047162;28;20037;-84
2023/05/01 07:57:54;;;;;;;18.05;10.13;;;;;;;13.97;100.00;151507.53;5040446;28;20116;-85
2023/05/01 08:00:20;;;;;;;19.00;9.93;;;;;;;13.98;100.00;151510.03;5035011;28;20394;-84
2023/05/01 08:02:46;;;;;;;21.35;9.73;;;;;;;14.27;100.00;151580.19;5034480;28;20186;-84
2023/05/01 08:05:11;;;;;;;17.55;9.95;;;;;;;14.37;100.00;151606.56;5037980;28;20428;-87
2023/05/01 08:07:40;;;;;;;15.60;9.75;;;;;;;14.54;100.00;151647.91;5043133;28;20034;-92
2023/05/01 08:10:19;;;;;;;13.85;9.20;;;;;;;14.58;100.00;151657.94;5042469;28;20040;-95
2023/05/01 08:12:47;;;;;;;16.30;9.48;;;;;;;14.67;100.00;151679.25;4968328;28;20422;-93
2023/05/01 08:15:16;;;;;;;19.95;8.75;;;;;;;14.64;100.00;151671.72;5313881;23;20057;-92
2023/05/01 08:17:45;;;;;;;14.82;9.07;;;;;;;15.01;100.00;151764.50;5012885;28;20455;-90
2023/05/01 08:20:34;;;;;;;12.82;8.65;;;;;;;15.17;100.00;151804.59;5021628;28;20021;-91
2023/05/01 08:23:07;;;;;;;17.90;10.00;;;;;;;15.16;100.00;151802.09;5004400;28;20049;-91
2023/05/01 08:25:32;;;;;;;18.63;8.43;;;;;;;15.08;100.00;151780.78;5018307;28;20049;-89
2023/05/01 08:28:12;;;;;;;13.77;8.25;;;;;;;15.15;100.00;151798.28;5022645;28;20038;-92
2023/05/01 08:30:40;;;;;;;15.27;8.68;;;;;;;15.22;100.00;151815.84;5117904;23;20049;-92
2023/05/01 08:33:11;;;;;;;15.30;8.30;;;;;;;15.49;100.00;151884.88;5005773;28;20046;-89
2023/05/01 08:35:36;;;;;;;14.13;8.23;;;;;;;15.55;100.00;151898.66;4982391;28;20050;-84
2023/05/01 08:38:02;;;;;;;12.88;7.07;;;;;;;15.74;100.00;151946.31;4996380;28;20435;-86
2023/05/01 08:40:32;;;;;;;17.73;7.10;;;;;;;15.84;100.00;151971.41;5002804;28;20108;-88
2023/05/01 08:43:00;;;;;;;14.40;7.47;;;;;;;15.52;100.00;151891.16;4994310;28;20117;-85
2023/05/01 08:45:34;;;;;;;12.85;6.57;;;;;;;15.55;100.00;151897.41;4978968;28;20502;-85
2023/05/01 08:48:04;;;;;;;12.10;6.95;;;;;;;15.34;100.00;151845.97;4990678;28;20041;-85
2023/05/01 08:50:32;;;;;;;12.95;6.72;;;;;;;15.36;100.00;151850.97;4986254;28;20032;-86
2023/05/01 08:52:58;;;;;;;10.95;6.38;;;;;;;15.28;100.00;151830.94;4993985;28;20125;-88
2023/05/01 08:55:36;;;;;;;12.10;6.32;;;;;;;15.25;100.00;151824.63;4991339;28;20678;-86
2023/05/01 08:58:08;;;;;;;15.60;6.57;;;;;;;15.46;100.00;151876.06;4995937;28;20042;-87
2023/05/01 09:00:34;;;;;;;11.20;7.53;;;;;;;15.38;100.00;151855.97;4994670;28;20134;-85
2023/05/01 09:03:01;;;;;;;10.70;6.32;;;;;;;15.31;100.00;151838.47;5013911;28;20086;-90
2023/05/01 09:05:27;;;;;;;15.60;7.22;;;;;;;15.58;100.00;151906.19;5021316;28;20027;-88
2023/05/01 09:07:57;;;;;;;13.98;7.45;;;;;;;15.47;100.00;151878.59;5018217;28;20054;-87
2023/05/01 09:10:25;;;;;;;15.00;7.22;;;;;;;15.68;100.00;151931.28;5012117;28;20121;-83
2023/05/01 09:12:58;;;;;;;17.20;7.55;;;;;;;15.68;100.00;151931.28;5093573;23;20109;-89
2023/05/01 09:15:25;;;;;;;11.35;7.10;;;;;;;15.74;100.00;151946.31;5016817;28;20046;-91
2023/05/01 09:17:52;;;;;;;12.90;6.80;;;;;;;15.76;100.00;151951.38;5018317;28;20010;-87
2023/05/01 09:20:18;;;;;;;12.27;6.78;;;;;;;15.50;100.00;151887.41;5036876;28;20042;-86
2023/05/01 09:22:44;;;;;;;12.90;6.68;;;;;;;15.66;100.00;151926.28;5036416;28;20041;-85
2023/05/01 09:25:10;;;;;;;20.50;7.53;;;;;;;15.58;100.00;151906.19;5036673;28;20029;-88
2023/05/01 09:27:37;;;;;;;18.10;8.80;;;;;;;15.66;100.00;151926.28;5037251;28;20013;-87
2023/05/01 09:34:20;;;;;;;13.77;7.72;;;;;;;15.81;100.00;151963.88;5035736;28;20067;-87
2023/05/01 09:36:46;;;;;;;13.95;7.88;;;;;;;15.74;100.00;151945.09;5041671;28;20069;-89
2023/05/01 09:39:21;;;;;;;13.52;7.05;;;;;;;15.71;100.00;151938.78;5041364;28;20090;-89
2023/05/01 09:41:51;;;;;;;15.55;7.88;;;;;;;15.88;100.00;151981.44;5041401;28;20098;-87
2023/05/01 09:44:20;;;;;;;11.18;7.30;;;;;;;15.75;100.00;151948.84;5035052;23;20102;-88
2023/05/01 09:46:46;;;;;;;13.23;8.30;;;;;;;15.75;100.00;151948.84;5021593;28;20074;-84
2023/05/01 09:49:11;;;;;;;12.50;8.00;;;;;;;15.88;100.00;151980.19;5019120;28;20026;-84
2023/05/01 09:55:25;;;;;;;14.30;7.35;;;;;;;16.01;100.00;152012.81;5017225;28;20049;-88
2023/05/01 09:57:50;;;;;;;12.63;7.53;;;;;;;16.20;100.00;152059.25;4991628;28;20042;-87
2023/05/01 10:00:19;;;;;;;22.20;7.68;;;;;;;16.28;100.00;152079.31;4978636;28;20054;-83
2023/05/01 10:02:46;;;;;;;10.00;7.15;;;;;;;16.73;100.00;152192.31;4978474;28;20039;-82
2023/05/01 10:05:13;;;;;;;10.45;6.22;;;;;;;16.88;100.00;152229.97;4978050;28;20066;-80
2023/05/01 10:07:56;;;;;;;10.82;7.22;;;;;;;17.26;100.00;152324.13;4983545;28;20407;-85
2023/05/01 10:10:21;;;;;;;17.67;7.00;;;;;;;17.45;100.00;152370.56;4997181;28;20040;-82
2023/05/01 10:12:47;;;;;;;15.38;6.30;;;;;;;17.02;100.00;152263.88;4991241;28;20046;-86
2023/05/01 10:15:14;;;;;;;12.55;6.38;;;;;;;17.02;100.00;152265.13;4978273;28;20062;-85
2023/05/01 10:17:42;;;;;;;13.48;7.03;;;;;;;17.11;100.00;152286.44;4981133;28;20042;-88
2023/05/01 10:20:11;;;;;;;12.57;7.07;;;;;;;17.20;100.00;152307.81;4996129;28;20057;-84
2023/05/01 10:22:40;;;;;;;11.57;6.68;;;;;;;17.15;100.00;152295.25;4982834;28;20399;-87
2023/05/01 10:25:07;;;;;;;17.50;6.13;;;;;;;17.18;100.00;152304.03;4998446;28;20056;-83
2023/05/01 10:27:34;;;;;;;10.00;5.93;;;;;;;17.10;100.00;152282.72;5000377;28;20027;-84
2023/05/01 10:30:06;;;;;;;10.90;6.57;;;;;;;16.99;100.00;152257.59;4987531;28;20035;-83
2023/05/01 10:32:36;;;;;;;9.05;6.03;;;;;;;17.10;100.00;152282.72;4983845;28;20038;-83
2023/05/01 10:35:08;;;;;;;10.75;5.82;;;;;;;17.43;100.00;152366.78;4998130;28;20499;-85
2023/05/01 10:37:46;;;;;;;13.27;5.57;;;;;;;17.42;100.00;152363.06;4999234;28;20395;-85
2023/05/01 10:40:37;;;;;;;7.82;5.45;;;;;;;17.35;100.00;152346.72;5000001;28;20038;-87
2023/05/01 10:43:16;;;;;;;8.40;5.70;;;;;;;17.43;100.00;152365.56;4993716;28;20038;-85
2023/05/01 10:45:48;;;;;;;14.23;6.03;;;;;;;17.33;100.00;152341.72;4978240;28;20138;-85
2023/05/01 10:48:38;;;;;;;10.32;5.50;;;;;;;17.16;100.00;152299.03;4980668;28;20046;-85
2023/05/01 10:51:19;;;;;;;9.25;5.68;;;;;;;17.19;100.00;152306.56;4978884;28;20035;-85
2023/05/01 10:53:46;;;;;;;8.00;5.10;;;;;;;17.15;100.00;152295.25;4979060;28;20522;-83
2023/05/01 10:56:20;;;;;;;15.32;5.82;;;;;;;17.17;100.00;152300.28;4979421;28;20043;-85
2023/05/01 10:58:50;;;;;;;18.48;5.40;;;;;;;17.03;100.00;152267.59;4976743;28;20492;-84
2023/05/01 11:01:35;;;;;;;11.32;5.88;;;;;;;17.21;100.00;152310.28;4980120;28;20042;-84
2023/05/01 11:04:23;;;;;;;10.80;5.55;;;;;;;17.30;100.00;152332.94;4977221;28;20043;-84
2023/05/01 11:07:01;;;;;;;9.05;6.10;;;;;;;17.30;100.00;152332.94;4976904;28;20045;-84
2023/05/01 11:09:38;;;;;;;9.13;4.85;;;;;;;17.18;100.00;152304.03;4978574;28;20404;-86
2023/05/01 11:12:06;;;;;;;8.90;5.25;;;;;;;16.91;100.00;152237.50;4978418;28;20038;-85
2023/05/01 11:14:56;;;;;;;11.95;5.88;;;;;;;16.95;100.00;152247.53;4987641;28;20027;-83
2023/05/01 11:17:41;;;;;;;7.30;5.35;;;;;;;16.90;100.00;152234.97;4992042;28;20551;-86
2023/05/01 11:20:28;;;;;;;;;;;;;;;17.10;100.00;152282.72;5011950;28;20500;-82